KBEA Airport (Beeville Muni) Information

FAA: BEA - ICAO: KBEA

KBEA Airport Location

State Texas
County Bee
City Beeville
KBEA Airport is 3 miles southwest of Beeville, TX.
Latitude 28-21-51.2000N
Longitude 097-47-31.0000W
Elevation 272ft

KBEA Airport METARs

METAR KBEA 200515Z AUTO 00000KT 10SM CLR 20/20 A3003 RMK AO2 T02020202
Altimeter 30.03"
Temperature 20.2°C (68.4°F)
Wind 0° at 0KT
Clouds Skies are clear.
Visibility 10.0mi
Time observed: 2021-10-20T05:15:00Z

KBEA Airport Details

Status Operational
Activation December 1966
Ownership Public
Usage Public
Chart SAN ANTONIO
ATC on-site No
Beacon schedule sunset-sunrise
Beacon color clear green

KBEA Airport Contacts

Owner CITY OF BEEVILLE
Owner address 400 N. WASHINGTON, BEEVILLE, TX 78102
Owner phone 361-358-4641
Manager HENRY W ODLOZIL, SR
Manager address 618 OLD PARK ROAD, ENNIS, TX 75119
Manager phone 972-646-5308

KBEA Airport (Beeville Muni) Radio Frequencies

KBEA (Airport) Radio Frequencies

UNICOM 122.8
Common traffic advisory frequency (CTAF) 122.8